East Kingston, New Hampshire
Current Conditions -  °F | °C
As of 3:58 PM on Saturday 20 Dec 2014 (Local Time) from KPSM Reporting Station
Broken Clouds Broken Clouds  
Wind Chill: 26°   Ceiling: 3400
Heat Index: 31°   Visibility: 10mi
Dew Point: 23°   Wind: 6mph
Humidity: 72%   Direction: 30°NNE
Pressure: 30.28"   Gusts: NA
Location:  42.93°N, 71.02°W
Report Text: KPSM 202058Z 03005KT 10SM BKN034 00/M05 A3028 RMK AO2A SLP259 T10041048 52006
Loading
Personal Weather Stations






























Interactive Weather Map New forecast layout! Learn more

10-Day Weather Forecast

Advertisements
Track Severe Weather on mobile